sensor_id;sensor_type;location;lat;lon;timestamp;P1;durP1;ratioP1;P2;durP2;ratioP2
61642;SDS011;47551;52.506;4.678;2022-12-10T00:00:15;44.67;;;25.53;;
61642;SDS011;47551;52.506;4.678;2022-12-10T00:00:35;45.80;;;25.25;;
61642;SDS011;47551;52.506;4.678;2022-12-10T00:01:02;46.83;;;25.23;;
61642;SDS011;47551;52.506;4.678;2022-12-10T00:01:26;46.53;;;25.08;;
61642;SDS011;47551;52.506;4.678;2022-12-10T00:01:48;47.67;;;25.02;;
61642;SDS011;47551;52.506;4.678;2022-12-10T00:02:08;48.13;;;25.45;;
61642;SDS011;47551;52.506;4.678;2022-12-10T00:02:29;47.83;;;25.85;;
61642;SDS011;47551;52.506;4.678;2022-12-10T00:02:52;47.70;;;24.58;;
61642;SDS011;47551;52.506;4.678;2022-12-10T00:03:12;48.47;;;25.20;;
61642;SDS011;47551;52.506;4.678;2022-12-10T00:03:32;46.27;;;25.10;;
61642;SDS011;47551;52.506;4.678;2022-12-10T00:03:52;46.67;;;25.27;;
61642;SDS011;47551;52.506;4.678;2022-12-10T00:04:13;48.07;;;25.50;;
61642;SDS011;47551;52.506;4.678;2022-12-10T00:04:33;50.60;;;26.40;;
61642;SDS011;47551;52.506;4.678;2022-12-10T00:04:54;48.63;;;25.27;;
61642;SDS011;47551;52.506;4.678;2022-12-10T00:05:14;47.07;;;25.20;;
61642;SDS011;47551;52.506;4.678;2022-12-10T00:05:34;49.43;;;26.27;;
61642;SDS011;47551;52.506;4.678;2022-12-10T00:05:54;49.23;;;25.63;;
61642;SDS011;47551;52.506;4.678;2022-12-10T00:06:16;46.77;;;25.27;;
61642;SDS011;47551;52.506;4.678;2022-12-10T00:06:36;47.25;;;25.85;;
61642;SDS011;47551;52.506;4.678;2022-12-10T00:07:00;50.40;;;26.15;;
61642;SDS011;47551;52.506;4.678;2022-12-10T00:07:20;47.60;;;25.67;;
61642;SDS011;47551;52.506;4.678;2022-12-10T00:07:43;47.55;;;25.20;;
61642;SDS011;47551;52.506;4.678;2022-12-10T00:08:03;51.20;;;26.03;;
61642;SDS011;47551;52.506;4.678;2022-12-10T00:08:26;51.13;;;25.67;;
61642;SDS011;47551;52.506;4.678;2022-12-10T00:08:46;47.63;;;26.37;;
61642;SDS011;47551;52.506;4.678;2022-12-10T00:09:14;50.55;;;26.02;;
61642;SDS011;47551;52.506;4.678;2022-12-10T00:09:34;48.25;;;25.13;;
61642;SDS011;47551;52.506;4.678;2022-12-10T00:09:54;50.20;;;25.10;;
61642;SDS011;47551;52.506;4.678;2022-12-10T00:10:17;50.22;;;25.77;;
61642;SDS011;47551;52.506;4.678;2022-12-10T00:10:40;48.13;;;25.67;;
61642;SDS011;47551;52.506;4.678;2022-12-10T00:11:04;47.88;;;25.77;;
61642;SDS011;47551;52.506;4.678;2022-12-10T00:11:25;47.30;;;25.60;;
61642;SDS011;47551;52.506;4.678;2022-12-10T00:11:48;48.17;;;25.10;;
61642;SDS011;47551;52.506;4.678;2022-12-10T00:12:09;48.40;;;24.88;;
61642;SDS011;47551;52.506;4.678;2022-12-10T00:12:29;46.28;;;25.17;;
61642;SDS011;47551;52.506;4.678;2022-12-10T00:12:49;47.13;;;25.00;;
61642;SDS011;47551;52.506;4.678;2022-12-10T00:13:09;49.50;;;25.00;;
61642;SDS011;47551;52.506;4.678;2022-12-10T00:13:33;50.03;;;25.35;;
61642;SDS011;47551;52.506;4.678;2022-12-10T00:13:53;51.03;;;25.27;;
61642;SDS011;47551;52.506;4.678;2022-12-10T00:14:13;49.00;;;25.63;;
61642;SDS011;47551;52.506;4.678;2022-12-10T00:14:34;51.08;;;26.08;;
61642;SDS011;47551;52.506;4.678;2022-12-10T00:14:54;49.20;;;25.27;;
61642;SDS011;47551;52.506;4.678;2022-12-10T00:15:14;49.33;;;25.10;;
61642;SDS011;47551;52.506;4.678;2022-12-10T00:15:35;46.70;;;25.15;;
61642;SDS011;47551;52.506;4.678;2022-12-10T00:15:57;52.33;;;25.97;;
61642;SDS011;47551;52.506;4.678;2022-12-10T00:16:19;50.30;;;26.02;;
61642;SDS011;47551;52.506;4.678;2022-12-10T00:16:40;49.00;;;25.15;;
61642;SDS011;47551;52.506;4.678;2022-12-10T00:17:00;50.80;;;25.95;;
61642;SDS011;47551;52.506;4.678;2022-12-10T00:17:23;48.97;;;25.50;;
61642;SDS011;47551;52.506;4.678;2022-12-10T00:17:43;49.30;;;24.97;;
61642;SDS011;47551;52.506;4.678;2022-12-10T00:18:04;49.23;;;24.77;;
61642;SDS011;47551;52.506;4.678;2022-12-10T00:18:24;49.40;;;25.27;;
61642;SDS011;47551;52.506;4.678;2022-12-10T00:18:44;47.47;;;24.53;;
61642;SDS011;47551;52.506;4.678;2022-12-10T00:19:05;48.10;;;25.15;;
61642;SDS011;47551;52.506;4.678;2022-12-10T00:19:25;49.20;;;25.27;;
61642;SDS011;47551;52.506;4.678;2022-12-10T00:19:45;50.20;;;25.17;;
61642;SDS011;47551;52.506;4.678;2022-12-10T00:20:06;50.70;;;25.60;;
61642;SDS011;47551;52.506;4.678;2022-12-10T00:20:26;53.15;;;25.58;;
61642;SDS011;47551;52.506;4.678;2022-12-10T00:20:46;51.93;;;25.10;;
61642;SDS011;47551;52.506;4.678;2022-12-10T00:21:10;53.90;;;25.70;;
61642;SDS011;47551;52.506;4.678;2022-12-10T00:21:32;51.08;;;25.45;;
61642;SDS011;47551;52.506;4.678;2022-12-10T00:21:52;52.28;;;26.17;;
61642;SDS011;47551;52.506;4.678;2022-12-10T00:22:12;52.42;;;25.38;;
61642;SDS011;47551;52.506;4.678;2022-12-10T00:22:32;50.27;;;25.47;;
61642;SDS011;47551;52.506;4.678;2022-12-10T00:22:53;52.30;;;26.50;;
61642;SDS011;47551;52.506;4.678;2022-12-10T00:23:13;50.90;;;25.87;;
61642;SDS011;47551;52.506;4.678;2022-12-10T00:23:33;50.22;;;26.38;;
61642;SDS011;47551;52.506;4.678;2022-12-10T00:23:54;51.03;;;25.87;;
61642;SDS011;47551;52.506;4.678;2022-12-10T00:24:14;50.97;;;25.73;;
61642;SDS011;47551;52.506;4.678;2022-12-10T00:24:35;48.60;;;25.27;;
61642;SDS011;47551;52.506;4.678;2022-12-10T00:24:55;51.63;;;25.33;;
61642;SDS011;47551;52.506;4.678;2022-12-10T00:25:15;55.43;;;25.90;;
61642;SDS011;47551;52.506;4.678;2022-12-10T00:25:35;51.93;;;25.60;;
61642;SDS011;47551;52.506;4.678;2022-12-10T00:26:02;51.45;;;26.48;;
61642;SDS011;47551;52.506;4.678;2022-12-10T00:26:23;53.95;;;26.77;;
61642;SDS011;47551;52.506;4.678;2022-12-10T00:26:44;51.38;;;25.60;;
61642;SDS011;47551;52.506;4.678;2022-12-10T00:27:05;50.55;;;26.30;;
61642;SDS011;47551;52.506;4.678;2022-12-10T00:27:26;51.03;;;25.83;;
61642;SDS011;47551;52.506;4.678;2022-12-10T00:27:46;50.23;;;25.50;;
61642;SDS011;47551;52.506;4.678;2022-12-10T00:28:06;51.83;;;25.57;;
61642;SDS011;47551;52.506;4.678;2022-12-10T00:28:26;52.60;;;26.23;;
61642;SDS011;47551;52.506;4.678;2022-12-10T00:28:47;54.57;;;25.87;;
61642;SDS011;47551;52.506;4.678;2022-12-10T00:29:08;52.03;;;25.83;;
61642;SDS011;47551;52.506;4.678;2022-12-10T00:29:29;50.47;;;25.25;;
61642;SDS011;47551;52.506;4.678;2022-12-10T00:29:52;51.42;;;24.88;;
61642;SDS011;47551;52.506;4.678;2022-12-10T00:30:12;53.03;;;25.97;;
61642;SDS011;47551;52.506;4.678;2022-12-10T00:30:32;51.97;;;25.73;;
61642;SDS011;47551;52.506;4.678;2022-12-10T00:30:53;52.45;;;25.02;;
61642;SDS011;47551;52.506;4.678;2022-12-10T00:31:15;54.63;;;26.13;;
61642;SDS011;47551;52.506;4.678;2022-12-10T00:31:35;54.92;;;25.98;;
61642;SDS011;47551;52.506;4.678;2022-12-10T00:31:56;52.80;;;25.55;;
61642;SDS011;47551;52.506;4.678;2022-12-10T00:32:16;53.23;;;25.10;;
61642;SDS011;47551;52.506;4.678;2022-12-10T00:32:36;55.65;;;26.02;;
61642;SDS011;47551;52.506;4.678;2022-12-10T00:32:57;56.17;;;26.33;;
61642;SDS011;47551;52.506;4.678;2022-12-10T00:33:17;55.13;;;25.93;;
61642;SDS011;47551;52.506;4.678;2022-12-10T00:33:37;54.67;;;25.53;;
61642;SDS011;47551;52.506;4.678;2022-12-10T00:34:01;50.35;;;25.25;;
61642;SDS011;47551;52.506;4.678;2022-12-10T00:34:22;54.15;;;25.77;;
61642;SDS011;47551;52.506;4.678;2022-12-10T00:34:42;54.50;;;25.53;;
61642;SDS011;47551;52.506;4.678;2022-12-10T00:35:02;57.13;;;26.02;;
61642;SDS011;47551;52.506;4.678;2022-12-10T00:35:22;57.33;;;25.93;;
61642;SDS011;47551;52.506;4.678;2022-12-10T00:35:43;55.03;;;25.83;;
61642;SDS011;47551;52.506;4.678;2022-12-10T00:36:10;54.45;;;25.55;;
61642;SDS011;47551;52.506;4.678;2022-12-10T00:36:38;54.78;;;25.67;;
61642;SDS011;47551;52.506;4.678;2022-12-10T00:36:58;55.03;;;25.42;;
61642;SDS011;47551;52.506;4.678;2022-12-10T00:37:19;50.73;;;24.47;;
61642;SDS011;47551;52.506;4.678;2022-12-10T00:37:39;52.90;;;25.57;;
61642;SDS011;47551;52.506;4.678;2022-12-10T00:37:59;53.13;;;26.00;;
61642;SDS011;47551;52.506;4.678;2022-12-10T00:38:19;52.73;;;25.77;;
61642;SDS011;47551;52.506;4.678;2022-12-10T00:38:42;53.47;;;24.85;;
61642;SDS011;47551;52.506;4.678;2022-12-10T00:39:03;55.47;;;26.33;;
61642;SDS011;47551;52.506;4.678;2022-12-10T00:39:23;55.78;;;26.45;;
61642;SDS011;47551;52.506;4.678;2022-12-10T00:39:44;52.60;;;25.13;;
61642;SDS011;47551;52.506;4.678;2022-12-10T00:40:07;54.10;;;25.83;;
61642;SDS011;47551;52.506;4.678;2022-12-10T00:40:27;55.78;;;25.73;;
61642;SDS011;47551;52.506;4.678;2022-12-10T00:40:48;54.20;;;25.63;;
61642;SDS011;47551;52.506;4.678;2022-12-10T00:41:08;52.60;;;25.70;;
61642;SDS011;47551;52.506;4.678;2022-12-10T00:41:28;55.45;;;25.45;;
61642;SDS011;47551;52.506;4.678;2022-12-10T00:41:49;53.43;;;24.10;;
61642;SDS011;47551;52.506;4.678;2022-12-10T00:42:09;62.13;;;24.20;;
61642;SDS011;47551;52.506;4.678;2022-12-10T00:42:29;58.65;;;24.98;;
61642;SDS011;47551;52.506;4.678;2022-12-10T00:42:49;57.47;;;25.77;;
61642;SDS011;47551;52.506;4.678;2022-12-10T00:43:09;55.73;;;25.63;;
61642;SDS011;47551;52.506;4.678;2022-12-10T00:43:29;54.83;;;25.50;;
61642;SDS011;47551;52.506;4.678;2022-12-10T00:43:50;55.25;;;25.85;;
61642;SDS011;47551;52.506;4.678;2022-12-10T00:44:10;53.10;;;26.17;;
61642;SDS011;47551;52.506;4.678;2022-12-10T00:44:30;56.37;;;25.27;;
61642;SDS011;47551;52.506;4.678;2022-12-10T00:44:50;62.93;;;26.23;;
61642;SDS011;47551;52.506;4.678;2022-12-10T00:45:10;60.37;;;25.20;;
61642;SDS011;47551;52.506;4.678;2022-12-10T00:45:31;56.20;;;25.23;;
61642;SDS011;47551;52.506;4.678;2022-12-10T00:45:52;53.37;;;24.80;;
61642;SDS011;47551;52.506;4.678;2022-12-10T00:46:13;54.33;;;24.92;;
61642;SDS011;47551;52.506;4.678;2022-12-10T00:46:33;53.38;;;25.20;;
61642;SDS011;47551;52.506;4.678;2022-12-10T00:46:54;59.93;;;25.73;;
61642;SDS011;47551;52.506;4.678;2022-12-10T00:47:14;56.03;;;25.17;;
61642;SDS011;47551;52.506;4.678;2022-12-10T00:47:34;53.90;;;24.83;;
61642;SDS011;47551;52.506;4.678;2022-12-10T00:47:54;54.17;;;25.70;;
61642;SDS011;47551;52.506;4.678;2022-12-10T00:48:14;56.93;;;25.63;;
61642;SDS011;47551;52.506;4.678;2022-12-10T00:48:35;57.43;;;25.67;;
61642;SDS011;47551;52.506;4.678;2022-12-10T00:48:58;51.38;;;25.10;;
61642;SDS011;47551;52.506;4.678;2022-12-10T00:49:18;51.40;;;25.07;;
61642;SDS011;47551;52.506;4.678;2022-12-10T00:49:42;55.80;;;25.77;;
61642;SDS011;47551;52.506;4.678;2022-12-10T00:50:03;57.88;;;25.75;;
61642;SDS011;47551;52.506;4.678;2022-12-10T00:50:23;56.80;;;25.13;;
61642;SDS011;47551;52.506;4.678;2022-12-10T00:50:43;52.63;;;24.60;;
61642;SDS011;47551;52.506;4.678;2022-12-10T00:51:07;52.63;;;24.77;;
61642;SDS011;47551;52.506;4.678;2022-12-10T00:51:28;58.50;;;25.50;;
61642;SDS011;47551;52.506;4.678;2022-12-10T00:51:48;53.47;;;25.10;;
61642;SDS011;47551;52.506;4.678;2022-12-10T00:52:08;51.80;;;24.53;;
61642;SDS011;47551;52.506;4.678;2022-12-10T00:52:29;50.27;;;24.07;;
61642;SDS011;47551;52.506;4.678;2022-12-10T00:52:49;51.13;;;24.30;;
61642;SDS011;47551;52.506;4.678;2022-12-10T00:53:09;53.25;;;24.17;;
61642;SDS011;47551;52.506;4.678;2022-12-10T00:53:30;53.67;;;23.60;;
61642;SDS011;47551;52.506;4.678;2022-12-10T00:53:51;54.13;;;24.35;;
61642;SDS011;47551;52.506;4.678;2022-12-10T00:54:11;52.83;;;24.90;;
61642;SDS011;47551;52.506;4.678;2022-12-10T00:54:32;51.40;;;24.52;;
61642;SDS011;47551;52.506;4.678;2022-12-10T00:54:52;55.57;;;24.53;;
61642;SDS011;47551;52.506;4.678;2022-12-10T00:55:12;61.93;;;23.97;;
61642;SDS011;47551;52.506;4.678;2022-12-10T00:55:33;61.33;;;23.80;;
61642;SDS011;47551;52.506;4.678;2022-12-10T00:55:53;54.88;;;24.17;;
61642;SDS011;47551;52.506;4.678;2022-12-10T00:56:16;54.57;;;24.90;;
61642;SDS011;47551;52.506;4.678;2022-12-10T00:56:36;54.28;;;25.23;;
61642;SDS011;47551;52.506;4.678;2022-12-10T00:56:57;56.80;;;24.77;;
61642;SDS011;47551;52.506;4.678;2022-12-10T00:57:17;51.70;;;23.73;;
61642;SDS011;47551;52.506;4.678;2022-12-10T00:57:37;49.57;;;23.57;;
61642;SDS011;47551;52.506;4.678;2022-12-10T00:58:00;51.70;;;23.37;;
61642;SDS011;47551;52.506;4.678;2022-12-10T00:58:26;53.78;;;23.48;;
61642;SDS011;47551;52.506;4.678;2022-12-10T00:58:46;50.25;;;23.25;;
61642;SDS011;47551;52.506;4.678;2022-12-10T00:59:07;56.40;;;23.10;;
61642;SDS011;47551;52.506;4.678;2022-12-10T00:59:27;52.60;;;23.73;;
61642;SDS011;47551;52.506;4.678;2022-12-10T00:59:47;50.30;;;23.73;;
61642;SDS011;47551;52.506;4.678;2022-12-10T01:00:08;49.27;;;23.03;;
61642;SDS011;47551;52.506;4.678;2022-12-10T01:00:28;51.10;;;23.70;;
61642;SDS011;47551;52.506;4.678;2022-12-10T01:00:48;49.97;;;23.77;;
61642;SDS011;47551;52.506;4.678;2022-12-10T01:01:28;49.17;;;22.30;;
61642;SDS011;47551;52.506;4.678;2022-12-10T01:01:49;51.80;;;23.52;;
61642;SDS011;47551;52.506;4.678;2022-12-10T01:02:09;51.00;;;23.53;;
61642;SDS011;47551;52.506;4.678;2022-12-10T01:02:29;49.07;;;23.83;;
61642;SDS011;47551;52.506;4.678;2022-12-10T01:02:49;50.20;;;24.40;;
61642;SDS011;47551;52.506;4.678;2022-12-10T01:03:10;52.70;;;23.92;;
61642;SDS011;47551;52.506;4.678;2022-12-10T01:03:30;50.80;;;23.07;;
61642;SDS011;47551;52.506;4.678;2022-12-10T01:03:52;54.47;;;23.60;;
61642;SDS011;47551;52.506;4.678;2022-12-10T01:04:14;53.67;;;23.75;;
61642;SDS011;47551;52.506;4.678;2022-12-10T01:04:34;52.70;;;23.95;;
61642;SDS011;47551;52.506;4.678;2022-12-10T01:04:57;53.37;;;23.07;;
61642;SDS011;47551;52.506;4.678;2022-12-10T01:05:18;48.15;;;22.33;;
61642;SDS011;47551;52.506;4.678;2022-12-10T01:05:38;50.27;;;23.27;;
61642;SDS011;47551;52.506;4.678;2022-12-10T01:06:34;51.78;;;23.95;;
61642;SDS011;47551;52.506;4.678;2022-12-10T01:06:54;50.45;;;23.92;;
61642;SDS011;47551;52.506;4.678;2022-12-10T01:07:14;49.13;;;23.37;;
61642;SDS011;47551;52.506;4.678;2022-12-10T01:07:35;52.88;;;24.25;;
61642;SDS011;47551;52.506;4.678;2022-12-10T01:07:55;52.60;;;23.27;;
61642;SDS011;47551;52.506;4.678;2022-12-10T01:08:15;54.50;;;23.37;;
61642;SDS011;47551;52.506;4.678;2022-12-10T01:08:39;51.75;;;23.73;;
61642;SDS011;47551;52.506;4.678;2022-12-10T01:09:00;47.17;;;23.65;;
61642;SDS011;47551;52.506;4.678;2022-12-10T01:09:24;48.60;;;23.63;;
61642;SDS011;47551;52.506;4.678;2022-12-10T01:09:45;52.50;;;24.98;;
61642;SDS011;47551;52.506;4.678;2022-12-10T01:10:05;50.40;;;23.17;;
61642;SDS011;47551;52.506;4.678;2022-12-10T01:10:25;51.17;;;23.35;;
61642;SDS011;47551;52.506;4.678;2022-12-10T01:10:46;56.17;;;23.40;;
61642;SDS011;47551;52.506;4.678;2022-12-10T01:11:12;60.70;;;23.30;;
61642;SDS011;47551;52.506;4.678;2022-12-10T01:11:36;66.20;;;23.02;;
61642;SDS011;47551;52.506;4.678;2022-12-10T01:11:59;66.85;;;23.85;;
61642;SDS011;47551;52.506;4.678;2022-12-10T01:12:21;57.30;;;23.90;;
61642;SDS011;47551;52.506;4.678;2022-12-10T01:12:41;61.60;;;23.30;;
61642;SDS011;47551;52.506;4.678;2022-12-10T01:13:01;71.73;;;23.23;;
61642;SDS011;47551;52.506;4.678;2022-12-10T01:13:28;60.10;;;23.63;;
61642;SDS011;47551;52.506;4.678;2022-12-10T01:13:48;50.70;;;22.80;;
61642;SDS011;47551;52.506;4.678;2022-12-10T01:14:10;54.43;;;22.57;;
61642;SDS011;47551;52.506;4.678;2022-12-10T01:14:31;52.95;;;22.73;;
61642;SDS011;47551;52.506;4.678;2022-12-10T01:14:51;51.42;;;23.00;;
61642;SDS011;47551;52.506;4.678;2022-12-10T01:15:12;48.37;;;23.07;;
61642;SDS011;47551;52.506;4.678;2022-12-10T01:15:32;49.67;;;23.10;;
61642;SDS011;47551;52.506;4.678;2022-12-10T01:15:56;54.45;;;23.35;;
61642;SDS011;47551;52.506;4.678;2022-12-10T01:16:17;57.50;;;23.50;;
61642;SDS011;47551;52.506;4.678;2022-12-10T01:16:40;55.45;;;22.00;;
61642;SDS011;47551;52.506;4.678;2022-12-10T01:17:02;51.30;;;23.05;;
61642;SDS011;47551;52.506;4.678;2022-12-10T01:17:22;52.33;;;22.65;;
61642;SDS011;47551;52.506;4.678;2022-12-10T01:17:43;52.17;;;22.40;;
61642;SDS011;47551;52.506;4.678;2022-12-10T01:18:03;51.83;;;23.23;;
61642;SDS011;47551;52.506;4.678;2022-12-10T01:18:23;47.50;;;22.73;;
61642;SDS011;47551;52.506;4.678;2022-12-10T01:18:43;47.57;;;22.17;;
61642;SDS011;47551;52.506;4.678;2022-12-10T01:19:03;48.40;;;22.47;;
61642;SDS011;47551;52.506;4.678;2022-12-10T01:19:24;51.50;;;22.17;;
61642;SDS011;47551;52.506;4.678;2022-12-10T01:19:44;52.20;;;22.87;;
61642;SDS011;47551;52.506;4.678;2022-12-10T01:20:04;46.10;;;22.17;;
61642;SDS011;47551;52.506;4.678;2022-12-10T01:20:25;47.28;;;21.73;;
61642;SDS011;47551;52.506;4.678;2022-12-10T01:20:45;49.67;;;22.57;;
61642;SDS011;47551;52.506;4.678;2022-12-10T01:21:14;46.53;;;23.23;;
61642;SDS011;47551;52.506;4.678;2022-12-10T01:21:34;49.47;;;21.42;;
61642;SDS011;47551;52.506;4.678;2022-12-10T01:21:55;49.53;;;22.05;;
61642;SDS011;47551;52.506;4.678;2022-12-10T01:22:15;48.10;;;22.50;;
61642;SDS011;47551;52.506;4.678;2022-12-10T01:22:35;49.95;;;22.80;;
61642;SDS011;47551;52.506;4.678;2022-12-10T01:22:55;48.63;;;22.50;;
61642;SDS011;47551;52.506;4.678;2022-12-10T01:23:16;48.70;;;21.90;;
61642;SDS011;47551;52.506;4.678;2022-12-10T01:23:37;47.30;;;21.90;;
61642;SDS011;47551;52.506;4.678;2022-12-10T01:23:57;56.47;;;23.35;;
61642;SDS011;47551;52.506;4.678;2022-12-10T01:24:18;72.20;;;23.27;;
61642;SDS011;47551;52.506;4.678;2022-12-10T01:24:38;77.55;;;22.10;;
61642;SDS011;47551;52.506;4.678;2022-12-10T01:24:58;64.63;;;22.87;;
61642;SDS011;47551;52.506;4.678;2022-12-10T01:25:18;51.57;;;22.70;;
61642;SDS011;47551;52.506;4.678;2022-12-10T01:26:00;48.72;;;22.45;;
61642;SDS011;47551;52.506;4.678;2022-12-10T01:26:22;47.50;;;22.30;;
61642;SDS011;47551;52.506;4.678;2022-12-10T01:26:42;49.55;;;22.48;;
61642;SDS011;47551;52.506;4.678;2022-12-10T01:27:03;49.17;;;22.87;;
61642;SDS011;47551;52.506;4.678;2022-12-10T01:27:23;48.50;;;22.80;;
61642;SDS011;47551;52.506;4.678;2022-12-10T01:27:43;46.83;;;22.53;;
61642;SDS011;47551;52.506;4.678;2022-12-10T01:28:09;60.92;;;23.38;;
61642;SDS011;47551;52.506;4.678;2022-12-10T01:28:30;53.33;;;23.17;;
61642;SDS011;47551;52.506;4.678;2022-12-10T01:28:51;51.38;;;23.15;;
61642;SDS011;47551;52.506;4.678;2022-12-10T01:29:11;52.17;;;23.00;;
61642;SDS011;47551;52.506;4.678;2022-12-10T01:29:31;72.07;;;23.00;;
61642;SDS011;47551;52.506;4.678;2022-12-10T01:29:54;71.97;;;23.63;;
61642;SDS011;47551;52.506;4.678;2022-12-10T01:30:15;69.20;;;23.15;;
61642;SDS011;47551;52.506;4.678;2022-12-10T01:30:35;77.30;;;22.88;;
61642;SDS011;47551;52.506;4.678;2022-12-10T01:30:55;60.53;;;22.13;;
61642;SDS011;47551;52.506;4.678;2022-12-10T01:31:22;51.43;;;22.10;;
61642;SDS011;47551;52.506;4.678;2022-12-10T01:31:43;52.80;;;23.45;;
61642;SDS011;47551;52.506;4.678;2022-12-10T01:32:03;61.13;;;23.63;;
61642;SDS011;47551;52.506;4.678;2022-12-10T01:32:26;60.10;;;23.40;;
61642;SDS011;47551;52.506;4.678;2022-12-10T01:32:46;73.13;;;23.00;;
61642;SDS011;47551;52.506;4.678;2022-12-10T01:33:09;63.42;;;23.73;;
61642;SDS011;47551;52.506;4.678;2022-12-10T01:33:29;52.57;;;22.67;;
61642;SDS011;47551;52.506;4.678;2022-12-10T01:33:53;51.90;;;21.95;;
61642;SDS011;47551;52.506;4.678;2022-12-10T01:34:13;59.78;;;21.95;;
61642;SDS011;47551;52.506;4.678;2022-12-10T01:34:34;56.83;;;22.97;;
61642;SDS011;47551;52.506;4.678;2022-12-10T01:34:57;67.67;;;22.13;;
61642;SDS011;47551;52.506;4.678;2022-12-10T01:35:17;68.35;;;22.73;;
61642;SDS011;47551;52.506;4.678;2022-12-10T01:35:40;65.28;;;22.75;;
61642;SDS011;47551;52.506;4.678;2022-12-10T01:36:19;51.83;;;21.67;;
61642;SDS011;47551;52.506;4.678;2022-12-10T01:36:41;65.03;;;22.13;;
61642;SDS011;47551;52.506;4.678;2022-12-10T01:37:01;62.67;;;22.70;;
61642;SDS011;47551;52.506;4.678;2022-12-10T01:37:21;57.97;;;22.20;;
61642;SDS011;47551;52.506;4.678;2022-12-10T01:37:44;46.75;;;22.30;;
61642;SDS011;47551;52.506;4.678;2022-12-10T01:38:05;45.97;;;22.67;;
61642;SDS011;47551;52.506;4.678;2022-12-10T01:38:27;51.50;;;22.65;;
61642;SDS011;47551;52.506;4.678;2022-12-10T01:38:47;59.20;;;21.67;;
61642;SDS011;47551;52.506;4.678;2022-12-10T01:39:09;62.97;;;21.83;;
61642;SDS011;47551;52.506;4.678;2022-12-10T01:39:29;58.13;;;21.88;;
61642;SDS011;47551;52.506;4.678;2022-12-10T01:39:50;58.07;;;22.10;;
61642;SDS011;47551;52.506;4.678;2022-12-10T01:40:10;59.20;;;22.10;;
61642;SDS011;47551;52.506;4.678;2022-12-10T01:40:30;53.42;;;21.83;;
61642;SDS011;47551;52.506;4.678;2022-12-10T01:40:51;53.67;;;22.43;;
61642;SDS011;47551;52.506;4.678;2022-12-10T01:41:27;64.33;;;22.10;;
61642;SDS011;47551;52.506;4.678;2022-12-10T01:41:52;65.55;;;21.85;;
61642;SDS011;47551;52.506;4.678;2022-12-10T01:42:16;52.10;;;21.77;;
61642;SDS011;47551;52.506;4.678;2022-12-10T01:42:36;58.28;;;22.10;;
61642;SDS011;47551;52.506;4.678;2022-12-10T01:42:56;52.93;;;21.73;;
61642;SDS011;47551;52.506;4.678;2022-12-10T01:43:16;65.83;;;22.03;;
61642;SDS011;47551;52.506;4.678;2022-12-10T01:45:05;48.05;;;21.45;;
61642;SDS011;47551;52.506;4.678;2022-12-10T01:45:25;59.08;;;22.42;;
61642;SDS011;47551;52.506;4.678;2022-12-10T01:45:45;52.70;;;21.67;;
61642;SDS011;47551;52.506;4.678;2022-12-10T01:46:06;50.97;;;22.20;;
61642;SDS011;47551;52.506;4.678;2022-12-10T01:46:27;49.30;;;21.67;;
61642;SDS011;47551;52.506;4.678;2022-12-10T01:46:48;56.85;;;22.00;;
61642;SDS011;47551;52.506;4.678;2022-12-10T01:47:09;54.85;;;21.77;;
61642;SDS011;47551;52.506;4.678;2022-12-10T01:47:29;44.40;;;20.60;;
61642;SDS011;47551;52.506;4.678;2022-12-10T01:47:49;48.83;;;20.87;;
61642;SDS011;47551;52.506;4.678;2022-12-10T01:48:10;56.80;;;21.63;;
61642;SDS011;47551;52.506;4.678;2022-12-10T01:48:30;55.00;;;20.58;;
61642;SDS011;47551;52.506;4.678;2022-12-10T01:48:50;53.03;;;20.97;;
61642;SDS011;47551;52.506;4.678;2022-12-10T01:49:12;67.53;;;22.30;;
61642;SDS011;47551;52.506;4.678;2022-12-10T01:49:35;67.10;;;21.92;;
61642;SDS011;47551;52.506;4.678;2022-12-10T01:49:58;63.28;;;21.38;;
61642;SDS011;47551;52.506;4.678;2022-12-10T01:50:21;55.67;;;20.70;;
61642;SDS011;47551;52.506;4.678;2022-12-10T01:50:42;60.33;;;21.13;;
61642;SDS011;47551;52.506;4.678;2022-12-10T01:51:02;50.07;;;20.87;;
61642;SDS011;47551;52.506;4.678;2022-12-10T01:51:23;48.00;;;20.90;;
61642;SDS011;47551;52.506;4.678;2022-12-10T01:51:45;44.13;;;20.20;;
61642;SDS011;47551;52.506;4.678;2022-12-10T01:52:07;44.60;;;20.88;;
61642;SDS011;47551;52.506;4.678;2022-12-10T01:52:27;47.63;;;21.33;;
61642;SDS011;47551;52.506;4.678;2022-12-10T01:52:48;61.17;;;21.60;;
61642;SDS011;47551;52.506;4.678;2022-12-10T01:53:12;60.17;;;20.23;;
61642;SDS011;47551;52.506;4.678;2022-12-10T01:53:32;61.10;;;20.20;;
61642;SDS011;47551;52.506;4.678;2022-12-10T01:53:55;53.63;;;21.10;;
61642;SDS011;47551;52.506;4.678;2022-12-10T01:54:17;48.20;;;20.70;;
61642;SDS011;47551;52.506;4.678;2022-12-10T01:54:40;46.38;;;21.08;;
61642;SDS011;47551;52.506;4.678;2022-12-10T01:55:00;43.95;;;20.48;;
61642;SDS011;47551;52.506;4.678;2022-12-10T01:56:00;60.40;;;21.15;;
61642;SDS011;47551;52.506;4.678;2022-12-10T01:56:21;72.40;;;21.52;;
61642;SDS011;47551;52.506;4.678;2022-12-10T01:56:43;70.37;;;21.97;;
61642;SDS011;47551;52.506;4.678;2022-12-10T01:57:05;56.58;;;20.70;;
61642;SDS011;47551;52.506;4.678;2022-12-10T01:57:27;60.13;;;21.10;;
61642;SDS011;47551;52.506;4.678;2022-12-10T01:57:50;60.97;;;20.67;;
61642;SDS011;47551;52.506;4.678;2022-12-10T01:58:11;55.03;;;20.57;;
61642;SDS011;47551;52.506;4.678;2022-12-10T01:58:31;48.25;;;21.00;;
61642;SDS011;47551;52.506;4.678;2022-12-10T01:58:53;44.57;;;20.40;;
61642;SDS011;47551;52.506;4.678;2022-12-10T01:59:16;40.20;;;20.48;;
61642;SDS011;47551;52.506;4.678;2022-12-10T01:59:37;48.73;;;20.37;;
61642;SDS011;47551;52.506;4.678;2022-12-10T01:59:58;50.35;;;19.77;;
61642;SDS011;47551;52.506;4.678;2022-12-10T02:00:20;50.95;;;20.83;;
61642;SDS011;47551;52.506;4.678;2022-12-10T02:00:43;51.33;;;21.13;;
61642;SDS011;47551;52.506;4.678;2022-12-10T02:02:46;58.65;;;20.35;;
61642;SDS011;47551;52.506;4.678;2022-12-10T02:03:13;54.17;;;19.45;;
61642;SDS011;47551;52.506;4.678;2022-12-10T02:03:40;66.30;;;20.80;;
61642;SDS011;47551;52.506;4.678;2022-12-10T02:05:35;76.60;;;20.80;;
61642;SDS011;47551;52.506;4.678;2022-12-10T02:06:00;58.00;;;20.80;;
61642;SDS011;47551;52.506;4.678;2022-12-10T02:06:56;66.90;;;20.20;;
61642;SDS011;47551;52.506;4.678;2022-12-10T02:07:31;71.97;;;20.30;;
61642;SDS011;47551;52.506;4.678;2022-12-10T02:08:27;74.45;;;20.83;;
61642;SDS011;47551;52.506;4.678;2022-12-10T02:09:02;67.60;;;20.40;;
61642;SDS011;47551;52.506;4.678;2022-12-10T02:09:32;62.28;;;21.35;;
61642;SDS011;47551;52.506;4.678;2022-12-10T02:09:58;56.80;;;20.55;;
61642;SDS011;47551;52.506;4.678;2022-12-10T02:10:54;46.45;;;19.60;;
61642;SDS011;47551;52.506;4.678;2022-12-10T02:11:22;61.33;;;20.63;;
61642;SDS011;47551;52.506;4.678;2022-12-10T02:11:47;54.63;;;19.88;;
61642;SDS011;47551;52.506;4.678;2022-12-10T02:13:10;53.15;;;20.50;;
61642;SDS011;47551;52.506;4.678;2022-12-10T02:13:35;52.78;;;19.92;;
61642;SDS011;47551;52.506;4.678;2022-12-10T02:13:58;57.42;;;20.00;;
61642;SDS011;47551;52.506;4.678;2022-12-10T02:14:54;66.43;;;20.08;;
61642;SDS011;47551;52.506;4.678;2022-12-10T02:15:16;41.60;;;20.02;;